This is the latest recevied weather packets stored in our database for station/object EA4BCR. If no packets are shown the sender has not sent any weather packets the latest 10 day(s).
| Time | Temp. | Humidity | Pressure | Rain* | Wind** | Luminosity | Snow |
|---|---|---|---|---|---|---|---|
| 1777625812 | 18.89° C | 75% | 1018.6 hPa | - | - | - | - |
| 1777625212 | 18.33° C | 79% | 1018.5 hPa | - | - | - | - |
| 1777624614 | 18.33° C | 78% | 1018.6 hPa | - | - | - | - |
| 1777624012 | 17.78° C | 82% | 1018.7 hPa | - | - | - | - |
| 1777623412 | 17.22° C | 84% | 1018.7 hPa | - | - | - | - |
| 1777622812 | 17.78° C | 80% | 1018.4 hPa | - | - | - | - |
| 1777622212 | 17.78° C | 82% | 1018.2 hPa | - | - | - | - |
| 1777621612 | 17.78° C | 86% | 1018.2 hPa | - | - | - | - |
| 1777621012 | 17.22° C | 92% | 1018.3 hPa | - | - | - | - |
| 1777620412 | 16.11° C | 98% | 1018.6 hPa | - | - | - | - |
| 1777619812 | 16.11° C | 96% | 1018.7 hPa | - | - | - | - |
| 1777619212 | 16.11° C | 95% | 1018.5 hPa | - | - | - | - |
| 1777618612 | 16.11° C | 97% | 1018.6 hPa | - | - | - | - |
| 1777618012 | 15.56° C | 10% | - | - | - | - | - |
| 1777617412 | 15.56° C | 98% | 1018.7 hPa | - | - | - | - |
| 1777616812 | 16.11° C | 10% | - | - | - | - | - |
| 1777616212 | 15° C | 10% | - | - | - | - | - |
| 1777615612 | 15.56° C | 90% | 1018.3 hPa | - | - | - | - |
| 1777614413 | 16.11° C | 91% | 1018.3 hPa | - | - | - | - |
| 1777613812 | 15° C | 99% | 1018.5 hPa | - | - | - | - |
| 1777613212 | 15° C | 98% | 1018.5 hPa | - | - | - | - |
| 1777612612 | 15° C | 95% | 1018.4 hPa | - | - | - | - |
| 1777612012 | 15.56° C | 90% | 1018 hPa | - | - | - | - |
| 1777611412 | 15.56° C | 90% | 1017.8 hPa | - | - | - | - |
| 1777610812 | 15.56° C | 87% | 1017.7 hPa | - | - | - | - |
* Rain since midnight (hover to see other rain measurements)
** Current wind speed in m/s (hover to see current wind gust speed)